createdAt,value
2023-05-14T00:01:00.289Z,19.7
2023-05-14T00:13:00.252Z,19.7
2023-05-14T00:25:00.219Z,19.6
2023-05-14T00:37:00.339Z,19.6
2023-05-14T00:49:00.333Z,19.6
2023-05-14T01:01:00.273Z,19.6
2023-05-14T01:13:00.286Z,19.5
2023-05-14T01:25:00.367Z,19.5
2023-05-14T01:37:00.359Z,19.5
2023-05-14T01:49:00.275Z,19.4
2023-05-14T02:01:00.284Z,19.4
2023-05-14T02:13:00.439Z,19.4
2023-05-14T02:25:00.378Z,19.4
2023-05-14T02:37:00.316Z,19.4
2023-05-14T02:49:00.512Z,19.3
2023-05-14T03:01:00.472Z,19.3
2023-05-14T03:13:00.442Z,19.3
2023-05-14T03:25:00.344Z,19.3
2023-05-14T03:37:00.508Z,19.3
2023-05-14T03:49:00.581Z,19.2
2023-05-14T04:01:00.431Z,19.2
2023-05-14T04:13:00.613Z,19.2
2023-05-14T04:25:00.546Z,19.2
2023-05-14T04:37:00.474Z,19.2
2023-05-14T04:49:00.469Z,19.1
2023-05-14T05:01:00.614Z,19.1
2023-05-14T05:13:00.620Z,19.1
2023-05-14T05:25:00.518Z,19.1
2023-05-14T05:37:00.480Z,19.1
2023-05-14T05:49:00.630Z,19.1
2023-05-14T06:01:00.594Z,19.1
2023-05-14T06:13:00.600Z,19.1
2023-05-14T06:25:00.735Z,19.1
2023-05-14T06:37:00.669Z,19.1
2023-05-14T06:49:00.714Z,19.1
2023-05-14T07:01:00.605Z,19.1
2023-05-14T07:13:00.813Z,19.1
2023-05-14T07:25:00.696Z,19.1
2023-05-14T07:37:00.677Z,19.2
2023-05-14T07:49:00.609Z,19.1
2023-05-14T08:01:00.784Z,19.2
2023-05-14T08:13:00.789Z,19.3
2023-05-14T08:25:00.742Z,19.3
2023-05-14T08:37:00.865Z,19.3
2023-05-14T08:49:00.876Z,19.3
2023-05-14T09:01:00.749Z,19.4
2023-05-14T09:13:00.782Z,19.2
2023-05-14T09:25:00.872Z,19.4
2023-05-14T09:37:00.849Z,19.4
2023-05-14T09:49:00.770Z,19.5
2023-05-14T10:01:00.765Z,19.4
2023-05-14T10:13:00.953Z,19.5
2023-05-14T10:25:00.871Z,19.5
2023-05-14T10:37:00.792Z,19.5
2023-05-14T10:49:00.992Z,19.5
2023-05-14T11:01:00.902Z,19.6
2023-05-14T11:13:00.945Z,19.6
2023-05-14T11:25:00.857Z,19.6
2023-05-14T11:37:01.022Z,19.6
2023-05-14T11:49:00.950Z,19.7
2023-05-14T12:01:01.051Z,19.6
2023-05-14T12:13:00.908Z,19.7
2023-05-14T12:25:01.114Z,19.8
2023-05-14T12:37:00.994Z,19.8
2023-05-14T12:49:00.996Z,19.8
2023-05-14T13:01:00.976Z,19.9
2023-05-14T13:13:01.172Z,19.6
2023-05-14T13:25:01.054Z,19.5
2023-05-14T13:37:01.037Z,19.5
2023-05-14T13:49:01.157Z,19.6
2023-05-14T14:01:01.138Z,19.5
2023-05-14T14:13:01.139Z,19.5
2023-05-14T14:25:01.056Z,19.6
2023-05-14T14:37:01.192Z,19.6
2023-05-14T14:49:01.169Z,19.7
2023-05-14T15:01:01.272Z,19.6
2023-05-14T15:13:01.112Z,19.5
2023-05-14T15:25:01.224Z,19.4
2023-05-14T15:37:01.193Z,19.3
2023-05-14T15:49:01.108Z,19.7
2023-05-14T16:01:01.217Z,19.7
2023-05-14T16:13:01.266Z,20
2023-05-14T16:25:03.231Z,20.1
2023-05-14T16:37:01.157Z,19.9
2023-05-14T16:49:01.461Z,19.9
2023-05-14T17:01:01.267Z,19.9
2023-05-14T17:13:01.264Z,19.9
2023-05-14T17:25:01.194Z,19.7
2023-05-14T17:37:01.436Z,19.8
2023-05-14T17:49:01.301Z,19.8
2023-05-14T18:01:01.418Z,19.8
2023-05-14T18:13:01.441Z,19.7
2023-05-14T18:25:01.419Z,19.7
2023-05-14T18:37:01.337Z,19.7
2023-05-14T18:49:01.357Z,19.5
2023-05-14T19:01:01.478Z,19.2
2023-05-14T19:13:01.490Z,19.5
2023-05-14T19:25:01.479Z,19.6
2023-05-14T19:37:01.504Z,19.5
2023-05-14T19:49:01.414Z,19.5
2023-05-14T20:01:01.428Z,19.5
2023-05-14T20:13:01.582Z,19.5
2023-05-14T20:25:01.521Z,19.5
2023-05-14T20:37:01.421Z,19.5
2023-05-14T20:49:01.436Z,19.5
2023-05-14T21:01:01.563Z,19.5
2023-05-14T21:13:01.579Z,19.5
2023-05-14T21:25:01.479Z,19.5
2023-05-14T21:37:01.496Z,19.5
2023-05-14T21:49:01.674Z,19.4
2023-05-14T22:01:01.644Z,19.3
2023-05-14T22:13:01.559Z,19.3
2023-05-14T22:25:01.517Z,19.3
2023-05-14T22:37:01.647Z,19.2
2023-05-14T22:49:01.621Z,19.2
2023-05-14T23:01:01.557Z,19.2
2023-05-14T23:13:01.566Z,19.2
2023-05-14T23:25:01.672Z,19.2
2023-05-14T23:37:01.654Z,19.1
2023-05-14T23:49:01.578Z,19.1
